createdAt,value
2017-08-03T00:00:38.193Z,0
2017-08-03T00:01:18.651Z,0
2017-08-03T00:01:59.106Z,0
2017-08-03T00:02:39.586Z,0
2017-08-03T00:03:20.040Z,0
2017-08-03T00:04:00.474Z,0
2017-08-03T00:04:40.944Z,0
2017-08-03T00:05:21.402Z,0
2017-08-03T00:06:01.860Z,0
2017-08-03T00:06:42.315Z,0
2017-08-03T00:07:22.778Z,0
2017-08-03T00:08:03.230Z,0
2017-08-03T00:08:43.788Z,0
2017-08-03T00:09:24.571Z,0
2017-08-03T00:11:22.279Z,0
2017-08-03T00:12:02.734Z,0
2017-08-03T00:12:43.210Z,0
2017-08-03T00:13:23.672Z,0
2017-08-03T00:14:04.139Z,0
2017-08-03T00:14:44.566Z,0
2017-08-03T00:15:25.021Z,0
2017-08-03T00:16:05.479Z,0
2017-08-03T00:16:45.931Z,0
2017-08-03T00:17:26.387Z,0
2017-08-03T00:18:06.842Z,0
2017-08-03T00:18:47.382Z,0
2017-08-03T00:19:27.837Z,0
2017-08-03T00:20:08.296Z,0
2017-08-03T00:20:48.739Z,0
2017-08-03T00:21:29.193Z,0
2017-08-03T00:22:09.652Z,0
2017-08-03T00:22:50.106Z,0
2017-08-03T00:23:30.565Z,0
2017-08-03T00:24:11.021Z,0
2017-08-03T00:24:51.476Z,0
2017-08-03T00:25:31.938Z,0
2017-08-03T00:26:12.385Z,0
2017-08-03T00:26:52.839Z,0
2017-08-03T00:27:33.292Z,0
2017-08-03T00:28:13.745Z,0
2017-08-03T00:28:54.202Z,0
2017-08-03T00:29:34.634Z,0
2017-08-03T00:30:15.079Z,0
2017-08-03T00:30:55.530Z,0
2017-08-03T00:31:35.989Z,0
2017-08-03T00:32:16.445Z,0
2017-08-03T00:32:56.897Z,0
2017-08-03T00:33:37.353Z,0
2017-08-03T00:34:17.808Z,0
2017-08-03T00:34:58.257Z,0
2017-08-03T00:35:38.713Z,0
2017-08-03T00:36:19.179Z,0
2017-08-03T00:36:59.629Z,0
2017-08-03T00:37:40.086Z,0
2017-08-03T00:38:20.534Z,0
2017-08-03T00:39:00.992Z,0
2017-08-03T00:39:41.453Z,0
2017-08-03T00:40:21.906Z,0
2017-08-03T00:41:02.353Z,0
2017-08-03T00:41:42.802Z,0
2017-08-03T00:42:23.253Z,0
2017-08-03T00:43:03.708Z,0
2017-08-03T00:43:44.165Z,0
2017-08-03T00:44:24.621Z,0
2017-08-03T00:45:05.077Z,0
2017-08-03T00:45:45.529Z,0
2017-08-03T00:46:25.980Z,0
2017-08-03T00:47:06.441Z,0
2017-08-03T00:47:46.889Z,0
2017-08-03T00:48:27.354Z,0
2017-08-03T00:49:07.806Z,0
2017-08-03T00:49:48.270Z,0
2017-08-03T00:50:28.729Z,0
2017-08-03T00:51:09.182Z,0
2017-08-03T00:51:49.639Z,0
2017-08-03T00:52:30.085Z,0
2017-08-03T00:53:10.541Z,0
2017-08-03T00:53:51.001Z,0
2017-08-03T00:54:31.467Z,0
2017-08-03T00:55:11.922Z,0
2017-08-03T00:55:52.378Z,0
2017-08-03T00:56:32.834Z,0
2017-08-03T00:57:13.288Z,0
2017-08-03T00:57:53.750Z,0
2017-08-03T00:58:34.210Z,0
2017-08-03T00:59:14.663Z,0
2017-08-03T00:59:55.110Z,0
2017-08-03T01:00:35.570Z,0
2017-08-03T01:01:16.017Z,0
2017-08-03T01:01:56.480Z,0
2017-08-03T01:02:36.930Z,0
2017-08-03T01:03:17.384Z,0
2017-08-03T01:03:57.843Z,0
2017-08-03T01:04:38.299Z,0
2017-08-03T01:05:18.763Z,0
2017-08-03T01:05:59.220Z,0
2017-08-03T01:06:39.676Z,0
2017-08-03T01:07:20.132Z,0
2017-08-03T01:08:00.600Z,0
2017-08-03T01:08:41.047Z,0
2017-08-03T01:09:21.497Z,0
2017-08-03T01:10:01.953Z,0
2017-08-03T01:10:42.392Z,0
2017-08-03T01:11:22.844Z,0
2017-08-03T01:12:03.297Z,0
2017-08-03T01:12:43.753Z,0
2017-08-03T01:13:24.207Z,0
2017-08-03T01:14:04.672Z,0
2017-08-03T01:14:45.128Z,0
2017-08-03T01:15:25.588Z,0
2017-08-03T01:16:06.051Z,0
2017-08-03T01:16:46.515Z,0
2017-08-03T01:17:26.969Z,0
2017-08-03T01:18:07.419Z,0
2017-08-03T01:18:47.867Z,0
2017-08-03T01:19:28.317Z,0
2017-08-03T01:20:08.773Z,0
2017-08-03T01:20:49.228Z,0
2017-08-03T01:21:29.668Z,0
2017-08-03T01:22:10.121Z,0
2017-08-03T01:22:50.575Z,0
2017-08-03T01:23:31.033Z,0
2017-08-03T01:24:11.482Z,0
2017-08-03T01:24:51.937Z,0
2017-08-03T01:25:32.393Z,0
2017-08-03T01:26:12.854Z,0
2017-08-03T01:26:53.313Z,0
2017-08-03T01:27:33.765Z,0
2017-08-03T01:28:14.232Z,0
2017-08-03T01:28:54.741Z,0
2017-08-03T01:29:35.178Z,0
2017-08-03T01:30:15.635Z,0
2017-08-03T01:30:56.084Z,0
2017-08-03T01:31:36.541Z,0
2017-08-03T01:32:17.011Z,0
2017-08-03T01:32:57.455Z,0
2017-08-03T01:33:37.917Z,0
2017-08-03T01:34:18.371Z,0
2017-08-03T01:34:58.825Z,0
2017-08-03T01:35:39.280Z,0
2017-08-03T01:36:19.730Z,0
2017-08-03T01:37:00.179Z,0
2017-08-03T01:37:40.634Z,0
2017-08-03T01:38:21.095Z,0
2017-08-03T01:39:01.533Z,0
2017-08-03T01:39:41.986Z,0
2017-08-03T01:40:22.441Z,0
2017-08-03T01:41:02.896Z,0
2017-08-03T01:41:43.345Z,0
2017-08-03T01:42:23.805Z,0
2017-08-03T01:43:04.244Z,0
2017-08-03T01:43:44.685Z,0
2017-08-03T01:44:25.131Z,0
2017-08-03T01:45:05.590Z,0
2017-08-03T01:45:46.041Z,0
2017-08-03T01:46:26.492Z,0
2017-08-03T01:47:06.962Z,0
2017-08-03T01:47:47.421Z,0
2017-08-03T01:48:27.880Z,0
2017-08-03T01:49:08.328Z,0
2017-08-03T01:49:48.790Z,0
2017-08-03T01:50:29.249Z,0
2017-08-03T01:51:09.703Z,0
2017-08-03T01:51:50.150Z,0
2017-08-03T01:52:30.608Z,0
2017-08-03T01:53:11.062Z,0
2017-08-03T01:53:51.505Z,0
2017-08-03T01:54:31.963Z,0
2017-08-03T01:55:12.418Z,0
2017-08-03T01:55:52.879Z,0
2017-08-03T01:56:33.339Z,0
2017-08-03T01:57:13.794Z,0
2017-08-03T01:57:54.252Z,0
2017-08-03T01:58:34.719Z,0
2017-08-03T01:59:15.166Z,0
2017-08-03T01:59:55.615Z,0
2017-08-03T02:00:36.080Z,0
2017-08-03T02:01:16.546Z,0
2017-08-03T02:01:57.012Z,0
2017-08-03T02:02:37.463Z,0
2017-08-03T02:03:17.919Z,0
2017-08-03T02:03:58.382Z,0
2017-08-03T02:04:38.839Z,0
2017-08-03T02:05:19.299Z,0
2017-08-03T02:05:59.742Z,0
2017-08-03T02:06:40.202Z,0
2017-08-03T02:07:20.663Z,0
2017-08-03T02:08:01.121Z,0
2017-08-03T02:08:41.573Z,0
2017-08-03T02:09:22.023Z,0
2017-08-03T02:10:02.483Z,0
2017-08-03T02:10:42.917Z,0
2017-08-03T02:11:23.365Z,0
2017-08-03T02:12:03.819Z,0
2017-08-03T02:12:44.278Z,0
2017-08-03T02:13:24.736Z,0
2017-08-03T02:14:05.196Z,0
2017-08-03T02:14:45.653Z,0
2017-08-03T02:15:26.111Z,0
2017-08-03T02:16:06.568Z,0
2017-08-03T02:16:47.032Z,0
2017-08-03T02:17:27.481Z,0
2017-08-03T02:18:07.939Z,0
2017-08-03T02:18:48.404Z,0
2017-08-03T02:19:28.854Z,0
2017-08-03T02:20:09.316Z,0
2017-08-03T02:20:49.768Z,0
2017-08-03T02:21:30.215Z,0
2017-08-03T02:22:10.669Z,0
2017-08-03T02:22:51.128Z,0
2017-08-03T02:23:31.602Z,0
2017-08-03T02:24:12.075Z,0
2017-08-03T02:24:52.531Z,0
2017-08-03T02:25:32.985Z,0
2017-08-03T02:26:13.444Z,0
2017-08-03T02:26:53.900Z,0
2017-08-03T02:27:34.368Z,0
2017-08-03T02:28:14.841Z,0
2017-08-03T02:28:55.292Z,0
2017-08-03T02:29:35.757Z,0
2017-08-03T02:30:16.207Z,0
2017-08-03T02:30:56.656Z,0
2017-08-03T02:31:37.114Z,0
2017-08-03T02:32:17.564Z,0
2017-08-03T02:32:58.015Z,0
2017-08-03T02:33:38.466Z,0
2017-08-03T02:34:18.925Z,0
2017-08-03T02:34:59.381Z,0
2017-08-03T02:35:39.829Z,0
2017-08-03T02:36:20.289Z,0
2017-08-03T02:37:00.748Z,0
2017-08-03T02:37:41.205Z,0
2017-08-03T02:38:21.664Z,0
2017-08-03T02:39:02.123Z,0
2017-08-03T02:39:42.584Z,0
2017-08-03T02:40:23.041Z,0
2017-08-03T02:41:03.498Z,0
2017-08-03T02:41:43.951Z,0
2017-08-03T02:42:24.412Z,0
2017-08-03T02:43:04.937Z,0
2017-08-03T02:43:45.389Z,0
2017-08-03T02:44:25.845Z,0
2017-08-03T02:45:06.292Z,0
2017-08-03T02:45:46.739Z,0
2017-08-03T02:46:27.197Z,0
2017-08-03T02:47:07.661Z,0
2017-08-03T02:47:48.113Z,0
2017-08-03T02:48:28.568Z,0
2017-08-03T02:49:09.026Z,0
2017-08-03T02:49:49.482Z,0
2017-08-03T02:50:29.932Z,0
2017-08-03T02:51:10.387Z,0
2017-08-03T02:51:50.843Z,0
2017-08-03T02:52:31.305Z,0
2017-08-03T02:53:11.767Z,0
2017-08-03T02:53:52.226Z,0
2017-08-03T02:54:32.681Z,0
2017-08-03T02:55:13.139Z,0
2017-08-03T02:55:53.586Z,0
2017-08-03T02:56:34.044Z,0
2017-08-03T02:57:14.500Z,0
2017-08-03T02:57:54.963Z,0
2017-08-03T02:58:35.419Z,0
2017-08-03T02:59:15.869Z,0
2017-08-03T02:59:56.330Z,0
2017-08-03T03:00:36.768Z,0
2017-08-03T03:01:17.217Z,0
2017-08-03T03:01:57.676Z,0
2017-08-03T03:02:38.129Z,0
2017-08-03T03:03:18.588Z,0
2017-08-03T03:03:59.032Z,0
2017-08-03T03:04:39.483Z,0
2017-08-03T03:05:19.939Z,0
2017-08-03T03:06:00.401Z,0
2017-08-03T03:06:40.864Z,0
2017-08-03T03:07:21.315Z,0
2017-08-03T03:08:01.773Z,0
2017-08-03T03:08:42.232Z,0
2017-08-03T03:09:22.685Z,0
2017-08-03T03:10:03.143Z,0
2017-08-03T03:10:43.605Z,0
2017-08-03T03:11:24.062Z,0
2017-08-03T03:12:04.512Z,0
2017-08-03T03:12:44.973Z,0
2017-08-03T03:13:25.440Z,0
2017-08-03T03:14:05.895Z,0
2017-08-03T03:14:46.343Z,0
2017-08-03T03:15:26.800Z,0
2017-08-03T03:16:07.255Z,0
2017-08-03T03:16:47.711Z,0
2017-08-03T03:17:28.170Z,0
2017-08-03T03:18:08.630Z,0
2017-08-03T03:18:49.082Z,0
2017-08-03T03:19:29.541Z,0
2017-08-03T03:20:09.999Z,0
2017-08-03T03:20:50.452Z,0
2017-08-03T03:21:30.903Z,0
2017-08-03T03:22:11.361Z,0
2017-08-03T03:22:51.813Z,0
2017-08-03T03:23:32.260Z,0
2017-08-03T03:24:12.715Z,0
2017-08-03T03:24:53.177Z,0
2017-08-03T03:25:33.640Z,0
2017-08-03T03:26:14.104Z,0
2017-08-03T03:26:54.564Z,0
2017-08-03T03:27:35.021Z,0
2017-08-03T03:28:15.472Z,0
2017-08-03T03:28:55.927Z,0
2017-08-03T03:29:36.397Z,0
2017-08-03T03:30:16.842Z,0
2017-08-03T03:30:57.295Z,0
2017-08-03T03:31:37.750Z,0
2017-08-03T03:32:18.220Z,0
2017-08-03T03:32:58.676Z,0
2017-08-03T03:33:39.142Z,0
2017-08-03T03:34:19.605Z,0
2017-08-03T03:35:00.070Z,0
2017-08-03T03:35:40.527Z,0
2017-08-03T03:36:20.983Z,0
2017-08-03T03:37:01.444Z,0
2017-08-03T03:37:41.903Z,0
2017-08-03T03:38:22.359Z,0
2017-08-03T03:39:02.817Z,0
2017-08-03T03:39:43.275Z,0
2017-08-03T03:40:23.733Z,0
2017-08-03T03:41:04.195Z,0
2017-08-03T03:41:44.656Z,0
2017-08-03T03:42:25.127Z,0
2017-08-03T03:43:05.586Z,0
2017-08-03T03:43:46.045Z,0
2017-08-03T03:44:26.497Z,0
2017-08-03T03:45:06.949Z,0
2017-08-03T03:45:47.406Z,0
2017-08-03T03:46:27.864Z,0
2017-08-03T03:47:08.329Z,0
2017-08-03T03:47:48.782Z,0
2017-08-03T03:48:29.235Z,0
2017-08-03T03:49:09.696Z,8
2017-08-03T03:49:50.157Z,8
2017-08-03T03:50:30.618Z,8
2017-08-03T03:51:11.084Z,4
2017-08-03T03:51:51.532Z,0
2017-08-03T03:52:31.995Z,4
2017-08-03T03:53:12.455Z,4
2017-08-03T03:53:52.913Z,4
2017-08-03T03:54:33.374Z,4
2017-08-03T03:55:13.833Z,4
2017-08-03T03:55:54.290Z,4
2017-08-03T03:56:34.743Z,4
2017-08-03T03:57:15.202Z,4
2017-08-03T03:57:55.658Z,8
2017-08-03T03:58:36.115Z,8
2017-08-03T03:59:16.576Z,8
2017-08-03T03:59:57.037Z,4
2017-08-03T04:00:37.498Z,8
2017-08-03T04:01:17.945Z,8
2017-08-03T04:01:58.401Z,8
2017-08-03T04:02:38.865Z,8
2017-08-03T04:03:19.323Z,8
2017-08-03T04:03:59.782Z,8
2017-08-03T04:04:40.243Z,8
2017-08-03T04:05:20.694Z,8
2017-08-03T04:06:01.147Z,8
2017-08-03T04:06:41.618Z,8
2017-08-03T04:07:22.074Z,8
2017-08-03T04:08:02.525Z,8
2017-08-03T04:08:42.976Z,12
2017-08-03T04:09:23.433Z,8
2017-08-03T04:10:03.888Z,12
2017-08-03T04:10:44.346Z,8
2017-08-03T04:11:24.801Z,12
2017-08-03T04:12:05.266Z,12
2017-08-03T04:12:45.723Z,12
2017-08-03T04:13:26.172Z,12
2017-08-03T04:14:06.625Z,16
2017-08-03T04:14:47.087Z,16
2017-08-03T04:15:27.546Z,16
2017-08-03T04:16:08.001Z,16
2017-08-03T04:16:48.450Z,16
2017-08-03T04:17:28.905Z,20
2017-08-03T04:18:09.365Z,16
2017-08-03T04:18:49.819Z,16
2017-08-03T04:19:30.274Z,16
2017-08-03T04:20:10.733Z,20
2017-08-03T04:20:51.190Z,16
2017-08-03T04:21:31.647Z,16
2017-08-03T04:22:12.108Z,16
2017-08-03T04:22:52.562Z,12
2017-08-03T04:23:33.026Z,16
2017-08-03T04:24:13.489Z,12
2017-08-03T04:24:53.944Z,12
2017-08-03T04:25:34.402Z,12
2017-08-03T04:26:14.863Z,8
2017-08-03T04:26:55.326Z,8
2017-08-03T04:27:35.781Z,8
2017-08-03T04:28:16.243Z,8
2017-08-03T04:28:56.698Z,8
2017-08-03T04:29:37.160Z,12
2017-08-03T04:30:17.616Z,8
2017-08-03T04:30:58.084Z,8
2017-08-03T04:31:38.533Z,8
2017-08-03T04:32:18.998Z,8
2017-08-03T04:32:59.457Z,8
2017-08-03T04:33:39.905Z,8
2017-08-03T04:34:20.360Z,4
2017-08-03T04:35:00.815Z,8
2017-08-03T04:35:41.271Z,12
2017-08-03T04:36:21.727Z,8
2017-08-03T04:37:02.208Z,12
2017-08-03T04:37:42.666Z,12
2017-08-03T04:38:23.116Z,12
2017-08-03T04:39:03.583Z,12
2017-08-03T04:39:44.041Z,12
2017-08-03T04:40:24.499Z,12
2017-08-03T04:41:04.958Z,8
2017-08-03T04:41:45.417Z,8
2017-08-03T04:42:25.876Z,8
2017-08-03T04:43:06.335Z,8
2017-08-03T04:43:46.795Z,8
2017-08-03T04:44:27.248Z,4
2017-08-03T04:45:07.707Z,12
2017-08-03T04:45:48.164Z,8
2017-08-03T04:46:28.616Z,12
2017-08-03T04:47:09.075Z,12
2017-08-03T04:47:49.535Z,12
2017-08-03T04:48:29.990Z,12
2017-08-03T04:49:10.452Z,12
2017-08-03T04:49:50.906Z,12
2017-08-03T04:50:31.359Z,12
2017-08-03T04:51:11.815Z,12
2017-08-03T04:51:52.278Z,12
2017-08-03T04:52:32.734Z,12
2017-08-03T04:53:13.192Z,12
2017-08-03T04:53:53.645Z,12
2017-08-03T04:54:34.091Z,8
2017-08-03T04:55:14.550Z,8
2017-08-03T04:55:55.012Z,8
2017-08-03T04:56:35.457Z,8
2017-08-03T04:57:15.917Z,8
2017-08-03T04:57:56.378Z,8
2017-08-03T04:58:36.830Z,8
2017-08-03T04:59:17.295Z,8
2017-08-03T04:59:57.749Z,8
2017-08-03T05:00:38.222Z,12
2017-08-03T05:01:18.672Z,12
2017-08-03T05:01:59.128Z,12
2017-08-03T05:02:39.588Z,8
2017-08-03T05:03:20.044Z,8
2017-08-03T05:04:00.495Z,8
2017-08-03T05:04:40.949Z,8
2017-08-03T05:05:21.407Z,8
2017-08-03T05:06:01.875Z,8
2017-08-03T05:06:42.324Z,8
2017-08-03T05:07:22.775Z,8
2017-08-03T05:08:03.238Z,8
2017-08-03T05:08:43.689Z,4
2017-08-03T05:09:24.148Z,8
2017-08-03T05:10:04.600Z,8
2017-08-03T05:10:45.058Z,12
2017-08-03T05:11:25.535Z,12
2017-08-03T05:12:05.972Z,12
2017-08-03T05:12:46.422Z,12
2017-08-03T05:13:26.878Z,12
2017-08-03T05:14:07.339Z,16
2017-08-03T05:14:47.803Z,16
2017-08-03T05:15:28.275Z,20
2017-08-03T05:16:08.723Z,20
2017-08-03T05:16:49.174Z,24
2017-08-03T05:17:29.630Z,28
2017-08-03T05:18:10.089Z,32
2017-08-03T05:18:50.550Z,32
2017-08-03T05:19:31.003Z,36
2017-08-03T05:20:11.474Z,36
2017-08-03T05:20:51.955Z,36
2017-08-03T05:21:32.418Z,36
2017-08-03T05:22:12.875Z,40
2017-08-03T05:22:53.324Z,40
2017-08-03T05:23:33.778Z,40
2017-08-03T05:24:14.244Z,36
2017-08-03T05:24:54.740Z,36
2017-08-03T05:25:35.148Z,36
2017-08-03T05:26:15.598Z,36
2017-08-03T05:26:56.106Z,36
2017-08-03T05:28:53.814Z,32
2017-08-03T05:29:34.278Z,28
2017-08-03T05:30:14.740Z,28
2017-08-03T05:30:55.191Z,28
2017-08-03T05:31:35.650Z,28
2017-08-03T05:32:16.108Z,28
2017-08-03T05:32:56.546Z,28
2017-08-03T05:33:36.999Z,28
2017-08-03T05:34:17.461Z,28
2017-08-03T05:34:57.913Z,32
2017-08-03T05:35:38.374Z,28
2017-08-03T05:36:18.830Z,32
2017-08-03T05:36:59.287Z,32
2017-08-03T05:37:39.758Z,36
2017-08-03T05:38:20.209Z,40
2017-08-03T05:39:00.672Z,36
2017-08-03T05:39:41.116Z,40
2017-08-03T05:40:21.574Z,40
2017-08-03T05:41:02.029Z,40
2017-08-03T05:41:42.489Z,40
2017-08-03T05:42:22.940Z,40
2017-08-03T05:43:03.410Z,40
2017-08-03T05:43:43.889Z,40
2017-08-03T05:44:24.371Z,40
2017-08-03T05:45:04.815Z,44
2017-08-03T05:45:45.280Z,44
2017-08-03T05:46:25.726Z,48
2017-08-03T05:47:06.206Z,52
2017-08-03T05:47:46.629Z,56
2017-08-03T05:48:27.083Z,56
2017-08-03T05:49:07.538Z,60
2017-08-03T05:49:48.029Z,64
2017-08-03T05:50:28.478Z,64
2017-08-03T05:51:08.933Z,64
2017-08-03T05:51:49.397Z,64
2017-08-03T05:52:29.843Z,68
2017-08-03T05:53:10.293Z,68
2017-08-03T05:53:50.745Z,64
2017-08-03T05:54:31.204Z,68
2017-08-03T05:55:11.668Z,64
2017-08-03T05:55:52.122Z,68
2017-08-03T05:56:32.577Z,68
2017-08-03T05:57:13.032Z,72
2017-08-03T05:57:53.493Z,68
2017-08-03T05:58:33.948Z,72
2017-08-03T05:59:14.402Z,72
2017-08-03T05:59:54.852Z,68
2017-08-03T06:00:35.305Z,68
2017-08-03T06:01:15.769Z,64
2017-08-03T06:01:56.230Z,64
2017-08-03T06:02:36.686Z,60
2017-08-03T06:03:17.140Z,56
2017-08-03T06:03:57.601Z,56
2017-08-03T06:04:38.052Z,56
2017-08-03T06:05:18.507Z,52
2017-08-03T06:05:58.968Z,52
2017-08-03T06:06:39.425Z,48
2017-08-03T06:07:19.876Z,44
2017-08-03T06:08:00.329Z,44
2017-08-03T06:08:40.781Z,44
2017-08-03T06:09:21.233Z,44
2017-08-03T06:10:01.695Z,40
2017-08-03T06:10:42.163Z,44
2017-08-03T06:11:22.619Z,48
2017-08-03T06:12:03.075Z,56
2017-08-03T06:12:43.531Z,60
2017-08-03T06:13:23.986Z,64
2017-08-03T06:14:04.445Z,68
2017-08-03T06:14:44.894Z,72
2017-08-03T06:15:25.354Z,72
2017-08-03T06:16:05.810Z,76
2017-08-03T06:16:46.268Z,76
2017-08-03T06:17:26.726Z,76
2017-08-03T06:18:07.209Z,80
2017-08-03T06:18:47.669Z,76
2017-08-03T06:19:28.129Z,84
2017-08-03T06:20:08.571Z,84
2017-08-03T06:20:49.027Z,84
2017-08-03T06:21:29.467Z,84
2017-08-03T06:22:09.924Z,88
2017-08-03T06:22:50.386Z,88
2017-08-03T06:23:30.838Z,88
2017-08-03T06:24:11.296Z,92
2017-08-03T06:24:51.753Z,92
2017-08-03T06:25:32.214Z,88
2017-08-03T06:26:12.666Z,92
2017-08-03T06:26:53.119Z,92
2017-08-03T06:27:33.582Z,92
2017-08-03T06:28:14.045Z,92
2017-08-03T06:28:54.494Z,96
2017-08-03T06:29:34.945Z,96
2017-08-03T06:30:15.425Z,96
2017-08-03T06:30:55.878Z,96
2017-08-03T06:31:36.331Z,100
2017-08-03T06:32:16.800Z,100
2017-08-03T06:32:57.255Z,100
2017-08-03T06:33:37.719Z,100
2017-08-03T06:34:18.187Z,104
2017-08-03T06:34:58.629Z,104
2017-08-03T06:35:39.081Z,104
2017-08-03T06:36:19.537Z,100
2017-08-03T06:36:59.997Z,96
2017-08-03T06:37:40.457Z,92
2017-08-03T06:38:20.909Z,92
2017-08-03T06:39:01.361Z,88
2017-08-03T06:39:41.815Z,84
2017-08-03T06:40:22.273Z,84
2017-08-03T06:41:02.733Z,80
2017-08-03T06:41:43.201Z,76
2017-08-03T06:42:23.659Z,76
2017-08-03T06:43:04.112Z,76
2017-08-03T06:43:44.569Z,76
2017-08-03T06:44:25.026Z,80
2017-08-03T06:45:05.483Z,80
2017-08-03T06:45:45.933Z,80
2017-08-03T06:46:26.416Z,84
2017-08-03T06:47:06.869Z,84
2017-08-03T06:47:47.325Z,84
2017-08-03T06:48:27.781Z,88
2017-08-03T06:49:08.228Z,84
2017-08-03T06:49:48.683Z,88
2017-08-03T06:50:29.144Z,88
2017-08-03T06:51:09.599Z,92
2017-08-03T06:51:50.053Z,96
2017-08-03T06:52:30.497Z,100
2017-08-03T06:53:10.956Z,108
2017-08-03T06:53:51.412Z,112
2017-08-03T06:54:31.870Z,112
2017-08-03T06:55:12.332Z,112
2017-08-03T06:55:52.783Z,112
2017-08-03T06:56:33.244Z,112
2017-08-03T06:57:13.699Z,112
2017-08-03T06:57:54.153Z,112
2017-08-03T06:58:34.609Z,108
2017-08-03T06:59:15.076Z,108
2017-08-03T06:59:55.524Z,104
2017-08-03T07:00:35.982Z,104
2017-08-03T07:01:16.435Z,104
2017-08-03T07:01:56.896Z,104
2017-08-03T07:02:37.342Z,104
2017-08-03T07:03:17.807Z,100
2017-08-03T07:03:58.252Z,104
2017-08-03T07:04:38.722Z,104
2017-08-03T07:05:19.177Z,108
2017-08-03T07:05:59.632Z,116
2017-08-03T07:06:40.092Z,120
2017-08-03T07:07:20.542Z,124
2017-08-03T07:08:01.006Z,132
2017-08-03T07:08:41.451Z,136
2017-08-03T07:09:21.908Z,132
2017-08-03T07:10:02.347Z,128
2017-08-03T07:10:42.814Z,128
2017-08-03T07:11:23.273Z,128
2017-08-03T07:12:03.719Z,132
2017-08-03T07:12:44.173Z,140
2017-08-03T07:13:24.628Z,148
2017-08-03T07:14:05.080Z,160
2017-08-03T07:16:38.234Z,172
2017-08-03T07:17:18.696Z,168
2017-08-03T07:17:59.154Z,156
2017-08-03T07:18:39.610Z,152
2017-08-03T07:19:20.064Z,148
2017-08-03T07:20:00.515Z,148
2017-08-03T07:20:40.982Z,148
2017-08-03T07:21:21.440Z,156
2017-08-03T07:22:01.899Z,164
2017-08-03T07:22:42.350Z,172
2017-08-03T07:23:22.827Z,180
2017-08-03T07:24:03.303Z,188
2017-08-03T07:24:43.757Z,196
2017-08-03T07:25:24.300Z,200
2017-08-03T07:26:04.738Z,204
2017-08-03T07:26:45.171Z,212
2017-08-03T07:29:13.240Z,236
2017-08-03T07:29:53.697Z,240
2017-08-03T07:30:34.158Z,248
2017-08-03T07:31:14.623Z,244
2017-08-03T07:31:55.069Z,244
2017-08-03T07:32:35.524Z,240
2017-08-03T07:33:15.977Z,232
2017-08-03T07:33:56.432Z,220
2017-08-03T07:34:36.890Z,216
2017-08-03T07:35:17.332Z,204
2017-08-03T07:35:57.788Z,204
2017-08-03T07:36:38.240Z,200
2017-08-03T07:37:18.686Z,196
2017-08-03T07:37:59.143Z,192
2017-08-03T07:38:39.602Z,188
2017-08-03T07:39:20.055Z,176
2017-08-03T07:40:00.509Z,176
2017-08-03T07:40:40.974Z,176
2017-08-03T07:41:21.450Z,180
2017-08-03T07:42:01.940Z,188
2017-08-03T07:42:42.393Z,196
2017-08-03T07:43:22.850Z,208
2017-08-03T07:44:03.308Z,216
2017-08-03T07:44:43.764Z,228
2017-08-03T07:45:24.513Z,248
2017-08-03T07:46:05.167Z,260
2017-08-03T07:46:45.622Z,280
2017-08-03T07:47:26.077Z,296
2017-08-03T07:48:06.897Z,312
2017-08-03T07:48:47.228Z,324
2017-08-03T07:49:27.686Z,328
2017-08-03T07:50:08.139Z,316
2017-08-03T07:50:48.578Z,304
2017-08-03T07:51:29.044Z,276
2017-08-03T07:52:09.504Z,260
2017-08-03T07:52:49.961Z,244
2017-08-03T07:53:30.418Z,228
2017-08-03T07:54:10.874Z,220
2017-08-03T07:54:51.389Z,208
2017-08-03T07:55:31.774Z,204
2017-08-03T07:56:12.233Z,200
2017-08-03T07:56:52.692Z,200
2017-08-03T07:57:33.429Z,200
2017-08-03T07:58:13.869Z,200
2017-08-03T07:58:54.323Z,196
2017-08-03T07:59:34.774Z,192
2017-08-03T08:00:15.228Z,196
2017-08-03T08:00:55.683Z,196
2017-08-03T08:01:36.140Z,204
2017-08-03T08:02:16.597Z,208
2017-08-03T08:02:57.051Z,220
2017-08-03T08:03:37.508Z,224
2017-08-03T08:04:17.961Z,224
2017-08-03T08:04:58.416Z,220
2017-08-03T08:05:38.868Z,220
2017-08-03T08:06:19.309Z,216
2017-08-03T08:06:59.780Z,216
2017-08-03T08:07:40.224Z,224
2017-08-03T08:08:20.681Z,224
2017-08-03T08:09:01.146Z,228
2017-08-03T08:09:41.594Z,232
2017-08-03T08:10:22.051Z,228
2017-08-03T08:11:02.510Z,224
2017-08-03T08:11:42.967Z,224
2017-08-03T08:12:23.418Z,224
2017-08-03T08:13:03.873Z,228
2017-08-03T08:13:44.329Z,244
2017-08-03T08:14:24.945Z,252
2017-08-03T08:15:05.405Z,264
2017-08-03T08:15:45.864Z,268
2017-08-03T08:16:26.317Z,276
2017-08-03T08:17:06.771Z,284
2017-08-03T08:17:47.225Z,284
2017-08-03T08:18:27.688Z,280
2017-08-03T08:19:08.125Z,272
2017-08-03T08:19:48.584Z,256
2017-08-03T08:20:29.037Z,248
2017-08-03T08:21:09.494Z,236
2017-08-03T08:21:49.945Z,232
2017-08-03T08:22:30.403Z,224
2017-08-03T08:23:10.845Z,216
2017-08-03T08:23:51.291Z,208
2017-08-03T08:24:31.922Z,204
2017-08-03T08:25:12.278Z,204
2017-08-03T08:25:52.735Z,200
2017-08-03T08:26:33.205Z,200
2017-08-03T08:27:13.664Z,196
2017-08-03T08:27:54.118Z,196
2017-08-03T08:28:34.583Z,192
2017-08-03T08:29:15.057Z,184
2017-08-03T08:31:48.186Z,172
2017-08-03T08:32:28.630Z,176
2017-08-03T08:33:09.075Z,176
2017-08-03T08:33:49.536Z,180
2017-08-03T08:34:30.004Z,180
2017-08-03T08:35:10.519Z,184
2017-08-03T08:35:51.130Z,192
2017-08-03T08:36:31.421Z,192
2017-08-03T08:37:11.877Z,192
2017-08-03T08:37:52.332Z,192
2017-08-03T08:38:32.789Z,192
2017-08-03T08:39:13.245Z,188
2017-08-03T08:39:53.699Z,192
2017-08-03T08:40:34.190Z,196
2017-08-03T08:41:14.599Z,200
2017-08-03T08:41:55.044Z,204
2017-08-03T08:42:35.493Z,208
2017-08-03T08:43:15.947Z,212
2017-08-03T08:43:56.400Z,220
2017-08-03T08:44:36.865Z,224
2017-08-03T08:45:17.317Z,232
2017-08-03T08:45:57.763Z,240
2017-08-03T08:46:38.220Z,248
2017-08-03T08:47:18.676Z,260
2017-08-03T08:47:59.135Z,272
2017-08-03T08:48:39.586Z,296
2017-08-03T08:49:20.033Z,312
2017-08-03T08:50:00.519Z,324
2017-08-03T08:50:40.967Z,340
2017-08-03T08:51:21.760Z,352
2017-08-03T08:52:02.248Z,356
2017-08-03T08:52:42.706Z,360
2017-08-03T08:53:23.162Z,352
2017-08-03T08:54:03.620Z,344
2017-08-03T08:54:44.068Z,332
2017-08-03T08:55:24.693Z,324
2017-08-03T08:56:05.188Z,312
2017-08-03T08:56:45.941Z,300
2017-08-03T08:57:26.390Z,284
2017-08-03T08:58:06.858Z,276
2017-08-03T08:58:47.305Z,264
2017-08-03T08:59:27.903Z,244
2017-08-03T09:00:08.588Z,232
2017-08-03T09:00:49.031Z,216
2017-08-03T09:01:29.485Z,208
2017-08-03T09:02:09.922Z,200
2017-08-03T09:02:50.371Z,196
2017-08-03T09:03:30.826Z,192
2017-08-03T09:04:11.277Z,184
2017-08-03T09:04:51.734Z,184
2017-08-03T09:05:32.181Z,180
2017-08-03T09:06:12.635Z,180
2017-08-03T09:06:53.092Z,176
2017-08-03T09:07:33.543Z,176
2017-08-03T09:08:14.003Z,176
2017-08-03T09:08:54.468Z,180
2017-08-03T09:09:34.914Z,188
2017-08-03T09:10:15.360Z,200
2017-08-03T09:10:55.851Z,220
2017-08-03T09:11:36.364Z,252
2017-08-03T09:12:16.783Z,280
2017-08-03T09:12:57.230Z,296
2017-08-03T09:13:37.681Z,316
2017-08-03T09:14:18.139Z,324
2017-08-03T09:14:58.595Z,324
2017-08-03T09:15:39.063Z,332
2017-08-03T09:16:19.518Z,348
2017-08-03T09:16:59.970Z,376
2017-08-03T09:17:40.433Z,412
2017-08-03T09:18:20.889Z,448
2017-08-03T09:19:01.726Z,472
2017-08-03T09:19:41.797Z,488
2017-08-03T09:20:22.250Z,492
2017-08-03T09:21:02.704Z,488
2017-08-03T09:21:43.158Z,484
2017-08-03T09:22:23.825Z,472
2017-08-03T09:23:04.283Z,456
2017-08-03T09:23:44.758Z,436
2017-08-03T09:24:25.616Z,420
2017-08-03T09:25:06.080Z,408
2017-08-03T09:25:46.534Z,416
2017-08-03T09:26:26.990Z,424
2017-08-03T09:27:07.445Z,444
2017-08-03T09:27:47.900Z,472
2017-08-03T09:28:28.343Z,496
2017-08-03T09:29:08.790Z,508
2017-08-03T09:29:49.436Z,524
2017-08-03T09:30:29.890Z,524
2017-08-03T09:31:10.344Z,520
2017-08-03T09:31:50.796Z,528
2017-08-03T09:32:31.254Z,536
2017-08-03T09:33:11.706Z,544
2017-08-03T09:33:52.281Z,552
2017-08-03T09:34:32.716Z,540
2017-08-03T09:35:13.192Z,544
2017-08-03T09:35:53.653Z,552
2017-08-03T09:36:34.111Z,556
2017-08-03T09:37:14.570Z,552
2017-08-03T09:37:55.027Z,552
2017-08-03T09:38:35.562Z,560
2017-08-03T09:39:16.119Z,568
2017-08-03T09:39:56.577Z,588
2017-08-03T09:40:37.649Z,604
2017-08-03T09:41:17.526Z,620
2017-08-03T09:41:57.983Z,632
2017-08-03T09:42:38.441Z,644
2017-08-03T09:43:18.895Z,660
2017-08-03T09:43:59.349Z,652
2017-08-03T09:44:39.807Z,648
2017-08-03T09:45:20.280Z,656
2017-08-03T09:46:00.724Z,660
2017-08-03T09:46:41.188Z,668
2017-08-03T09:47:21.650Z,672
2017-08-03T09:48:02.107Z,664
2017-08-03T09:48:42.554Z,648